Time;durP1;ratioP1;P1;durP2;ratioP2;P2;SDS_P1;SDS_P2;PMS_P1;PMS_P2;Temp;Humidity;BMP_temperature;BMP_pressure;BME280_temperature;BME280_humidity;BME280_pressure;Samples;Min_cycle;Max_cycle;Signal;HPM_P1;HPM_P2
2024/02/21 00:00:28;;;;;;;;;31.00;24.00;;;;;10.50;65.90;102458.59;1990148;28;3600266;-75
2024/02/21 00:01:40;;;;;;;;;22.33;21.67;;;;;10.47;65.95;102454.22;2005842;28;3580495;-75
2024/02/21 00:02:52;;;;;;;;;23.00;21.00;;;;;10.46;65.96;102456.00;2009641;28;3577334;-75
2024/02/21 00:04:04;;;;;;;;;22.67;20.67;;;;;10.44;66.18;102446.38;1995633;28;3592271;-75
2024/02/21 00:05:15;;;;;;;;;30.00;22.33;;;;;10.44;66.07;102441.13;1980672;28;3594081;-75
2024/02/21 00:06:27;;;;;;;;;23.00;18.33;;;;;10.41;66.19;102439.38;1989482;28;3571069;-75
2024/02/21 00:07:39;;;;;;;;;22.33;20.67;;;;;10.40;66.27;102434.09;2013955;27;3579769;-75
2024/02/21 00:08:51;;;;;;;;;22.00;19.33;;;;;10.38;66.05;102434.13;2005144;28;2833627;-75
2024/02/21 00:10:03;;;;;;;;;27.33;24.67;;;;;10.37;65.93;102431.53;1990719;28;3576310;-75
2024/02/21 00:11:14;;;;;;;;;26.40;20.60;;;;;10.36;66.45;102441.16;2007416;28;3583529;-75
2024/02/21 00:12:26;;;;;;;;;25.00;22.20;;;;;10.34;66.31;102440.28;1995067;28;3573094;-75
2024/02/21 00:13:38;;;;;;;;;21.80;20.40;;;;;10.31;66.04;102435.91;2005538;28;3574244;-75
2024/02/21 00:14:50;;;;;;;;;22.00;21.33;;;;;10.31;66.34;102437.66;2001207;28;3576285;-75
2024/02/21 00:16:02;;;;;;;;;20.67;19.00;;;;;10.30;66.21;102444.66;1999964;28;3577346;-75
2024/02/21 00:17:14;;;;;;;;;27.33;22.00;;;;;10.29;66.14;102439.44;2000984;28;3588773;-75
2024/02/21 00:18:26;;;;;;;;;25.80;20.20;;;;;10.30;66.26;102441.16;2013269;28;3579353;-75
2024/02/21 00:19:40;;;;;;;;;29.86;21.57;;;;;10.30;66.21;102442.03;2032885;27;2865885;-75
2024/02/21 00:20:51;;;;;;;;;23.67;23.33;;;;;10.27;66.43;102436.81;1989747;28;3573227;-75
2024/02/21 00:22:04;;;;;;;;;23.00;19.33;;;;;10.26;66.14;102432.44;2014843;28;3578758;-75
2024/02/21 00:23:14;;;;;;;;;26.50;20.00;;;;;10.27;66.43;102426.31;1991399;28;2833603;-75
2024/02/21 00:24:26;;;;;;;;;18.33;17.33;;;;;10.24;66.60;102419.31;2008118;28;3563770;-75
2024/02/21 00:25:38;;;;;;;;;22.33;18.00;;;;;10.25;66.52;102417.53;2015592;28;3571069;-74
2024/02/21 00:26:49;;;;;;;;;17.50;16.00;;;;;10.24;66.45;102416.69;2002429;28;2793519;-75
2024/02/21 00:28:01;;;;;;;;;17.20;16.40;;;;;10.24;66.80;102414.06;1996205;28;1821088;-75
2024/02/21 00:29:15;;;;;;;;;20.29;16.86;;;;;10.24;66.53;102421.06;2027471;28;1834138;-75
2024/02/21 00:30:28;;;;;;;;;20.83;17.50;;;;;10.24;66.97;102426.31;2028469;28;1828416;-75
2024/02/21 00:31:39;;;;;;;;;19.00;17.50;;;;;10.24;65.90;102426.31;1974842;27;2810697;-75
2024/02/21 00:32:50;;;;;;;;;15.20;14.80;;;;;10.22;66.74;102428.94;1995945;28;2805468;-75
2024/02/21 00:34:04;;;;;;;;;18.00;16.57;;;;;10.24;66.25;102435.09;2027870;27;1838818;-75
2024/02/21 00:35:17;;;;;;;;;17.80;15.40;;;;;10.23;66.71;102435.94;2018786;28;2823159;-75
2024/02/21 00:36:29;;;;;;;;;20.67;17.00;;;;;10.23;66.66;102429.81;1985962;28;2833643;-75
2024/02/21 00:37:39;;;;;;;;;14.50;13.50;;;;;10.24;66.65;102426.31;1991442;28;2804465;-75
2024/02/21 00:38:50;;;;;;;;;19.50;15.00;;;;;10.23;66.94;102428.06;1981929;28;2821132;-75
2024/02/21 00:40:01;;;;;;;;;21.00;16.50;;;;;10.26;66.68;102424.56;1996639;28;1832033;-75
2024/02/21 00:41:12;;;;;;;;;20.00;15.50;;;;;10.24;66.46;102413.19;1975795;27;2829457;-75
2024/02/21 00:42:24;;;;;;;;;19.80;17.80;;;;;10.23;66.77;102419.31;2001905;28;1833600;-75
2024/02/21 00:43:38;;;;;;;;;20.57;16.00;;;;;10.22;66.46;102414.94;2026764;27;1833614;-75
2024/02/21 00:44:49;;;;;;;;;18.50;17.50;;;;;10.22;67.00;102412.31;1998121;28;2825262;-75
2024/02/21 00:46:00;;;;;;;;;18.33;18.00;;;;;10.22;66.70;102402.66;1993402;28;3561691;-75
2024/02/21 00:47:12;;;;;;;;;19.33;18.00;;;;;10.22;66.29;102407.91;2007625;28;3562764;-75
2024/02/21 00:48:25;;;;;;;;;24.83;21.33;;;;;10.20;66.48;102395.66;2021059;28;2845010;-75
2024/02/21 00:49:38;;;;;;;;;18.00;17.50;;;;;10.23;67.12;102403.53;2002125;27;2829386;-75
2024/02/21 00:50:50;;;;;;;;;23.67;20.33;;;;;10.19;66.79;102397.44;1980602;28;3564884;-75
2024/02/21 00:52:02;;;;;;;;;22.20;16.40;;;;;10.19;66.32;102394.81;2008333;28;1832590;-75
2024/02/21 00:53:15;;;;;;;;;21.33;19.83;;;;;10.18;66.36;102400.06;2017901;28;1839870;-75
2024/02/21 00:54:27;;;;;;;;;21.00;18.67;;;;;10.17;66.63;102388.69;1967090;28;3571062;-75
2024/02/21 00:55:40;;;;;;;;;20.17;16.50;;;;;10.19;66.79;102381.66;2025429;28;2829429;-75
2024/02/21 00:56:51;;;;;;;;;28.67;22.00;;;;;10.13;66.90;102366.78;1975417;28;3582531;-75
2024/02/21 00:58:03;;;;;;;;;20.67;18.33;;;;;10.17;66.64;102375.56;2007530;28;2832664;-75
2024/02/21 00:59:16;;;;;;;;;19.40;16.20;;;;;10.15;66.84;102379.91;2016980;27;2833670;-75
2024/02/21 01:00:29;;;;;;;;;20.60;17.40;;;;;10.13;66.40;102379.94;1996959;28;2826320;-75
2024/02/21 01:01:42;;;;;;;;;29.00;21.75;;;;;10.11;66.64;102384.31;1992186;28;1844063;-75
2024/02/21 01:02:53;;;;;;;;;17.00;17.00;;;;;10.10;66.63;102384.34;1971089;28;2822178;-75
2024/02/21 01:04:05;;;;;;;;;24.33;21.33;;;;;10.11;66.60;102381.69;2015521;28;3565854;-75
2024/02/21 01:05:16;;;;;;;;;21.00;20.00;;;;;10.10;66.53;102379.94;2005330;28;3575229;-75
2024/02/21 01:06:29;;;;;;;;;21.67;19.00;;;;;10.12;66.49;102374.69;2029785;28;2835696;-75
2024/02/21 01:07:41;;;;;;;;;18.75;14.75;;;;;10.08;66.47;102368.56;2012502;28;1832633;-75
2024/02/21 01:08:53;;;;;;;;;23.67;20.00;;;;;10.07;66.45;102363.34;2001941;28;3579777;-75
2024/02/21 01:10:06;;;;;;;;;19.00;17.67;;;;;10.05;66.70;102355.44;2007181;28;2837846;-75
2024/02/21 01:11:17;;;;;;;;;21.33;17.00;;;;;10.05;66.97;102355.44;1997736;28;3564816;-75
2024/02/21 01:12:28;;;;;;;;;25.50;19.00;;;;;10.04;66.81;102356.34;2021173;28;2841943;-75
2024/02/21 01:13:40;;;;;;;;;23.33;18.00;;;;;10.05;66.85;102360.69;1998578;28;3569993;-75
2024/02/21 01:14:52;;;;;;;;;20.33;17.33;;;;;10.03;66.75;102351.94;2005503;28;2824322;-75
2024/02/21 01:16:03;;;;;;;;;24.00;17.00;;;;;10.04;66.54;102358.97;1983418;28;2834667;-75
2024/02/21 01:17:15;;;;;;;;;26.00;17.33;;;;;10.04;67.00;102355.47;1976305;28;3580416;-75
2024/02/21 01:18:29;;;;;;;;;18.86;16.86;;;;;10.06;66.91;102351.06;2019587;28;1832106;-75
2024/02/21 01:19:42;;;;;;;;;18.83;17.33;;;;;10.02;66.89;102348.44;2018424;28;1842038;-75
2024/02/21 01:20:54;;;;;;;;;19.67;16.33;;;;;10.02;66.86;102339.72;1969134;28;2822213;-75
2024/02/21 01:22:05;;;;;;;;;20.25;16.00;;;;;10.03;66.76;102338.81;2012669;27;1856607;-75
2024/02/21 01:23:16;;;;;;;;;17.00;15.50;;;;;10.02;66.85;102337.09;2015684;28;2823163;-75
2024/02/21 01:24:27;;;;;;;;;17.50;16.75;;;;;10.03;66.94;102338.81;1999537;28;1833607;-75
2024/02/21 01:25:38;;;;;;;;;18.00;16.00;;;;;10.01;66.93;102323.06;1967314;28;2787708;-75
2024/02/21 01:26:50;;;;;;;;;25.00;17.00;;;;;10.02;66.63;102323.94;1989100;28;3579689;-75
2024/02/21 01:28:02;;;;;;;;;22.67;17.67;;;;;10.01;67.06;102316.94;2011536;27;3561811;-75
2024/02/21 01:29:14;;;;;;;;;17.33;14.00;;;;;10.02;67.08;102326.56;2021689;28;2812719;-75
2024/02/21 01:30:26;;;;;;;;;18.00;18.00;;;;;10.01;66.92;102322.19;1992156;28;2830470;-75
2024/02/21 01:31:37;;;;;;;;;19.00;17.00;;;;;10.02;67.15;102326.56;1991342;28;3562689;-75
2024/02/21 01:32:48;;;;;;;;;19.00;15.00;;;;;10.01;67.29;102333.56;2015523;28;2822134;-75
2024/02/21 01:34:00;;;;;;;;;20.67;17.33;;;;;10.01;67.11;102335.31;1993127;28;2825230;-75
2024/02/21 01:35:11;;;;;;;;;15.00;15.00;;;;;10.03;67.09;102330.94;1995894;28;2797154;-75
2024/02/21 01:36:22;;;;;;;;;15.00;14.50;;;;;10.04;67.22;102329.19;1993458;28;2801288;-75
2024/02/21 01:37:33;;;;;;;;;19.50;17.50;;;;;10.05;67.29;102321.28;2007251;28;2825279;-75
2024/02/21 01:38:44;;;;;;;;;20.50;15.00;;;;;10.05;67.46;102320.44;1984377;28;2812798;-75
2024/02/21 01:39:55;;;;;;;;;12.00;7.00;;;;;10.07;67.57;102330.06;1991818;28;2764940;-75
2024/02/21 01:41:07;;;;;;;;;19.33;16.33;;;;;10.11;67.71;102344.03;2005692;28;2824224;-75
2024/02/21 01:42:19;;;;;;;;;21.60;16.60;;;;;10.10;67.35;102339.69;2009734;28;2833548;-75
2024/02/21 01:43:31;;;;;;;;;19.00;18.00;;;;;10.15;67.29;102363.31;1991678;28;3560685;-75
2024/02/21 01:44:42;;;;;;;;;18.00;15.00;;;;;10.14;67.38;102349.28;2001816;28;2812794;-75
2024/02/21 01:45:55;;;;;;;;;17.50;15.00;;;;;10.18;67.45;102352.75;1984685;28;2815905;-75
2024/02/21 01:47:06;;;;;;;;;17.00;16.00;;;;;10.18;67.51;102342.25;1967172;28;2821064;-75
2024/02/21 01:48:22;;;;;;;;;17.50;14.50;;;;;10.20;67.41;102329.97;1977123;28;2801301;-75
2024/02/21 01:49:32;;;;;;;;;16.50;15.50;;;;;10.21;67.52;102332.59;1967899;28;2817983;-75
2024/02/21 01:50:49;;;;;;;;;27.67;19.00;;;;;10.24;67.28;102336.97;1979375;28;3584611;-75
2024/02/21 01:52:03;;;;;;;;;18.00;15.67;;;;;10.28;67.59;102343.06;1994595;27;2821198;-75
2024/02/21 01:53:20;;;;;;;;;17.17;15.67;;;;;10.28;67.51;102338.69;2026198;28;1832073;-75
2024/02/21 01:54:31;;;;;;;;;19.50;17.50;;;;;10.30;67.38;102336.03;1970901;28;2832569;-75
2024/02/21 01:55:42;;;;;;;;;19.00;15.00;;;;;10.36;67.50;102338.66;1995151;28;2816295;-75
2024/02/21 01:56:54;;;;;;;;;25.00;19.00;;;;;10.38;67.43;102341.25;2001404;28;3584650;-75
2024/02/21 01:58:05;;;;;;;;;16.00;16.00;;;;;10.40;67.04;102337.72;1987176;28;2820054;-75
2024/02/21 01:59:19;;;;;;;;;22.00;19.00;;;;;10.41;67.50;102350.00;1995308;27;3572072;-75
2024/02/21 02:00:31;;;;;;;;;19.33;17.00;;;;;10.39;67.35;102330.75;2004764;28;3571022;-75
2024/02/21 02:01:43;;;;;;;;;20.00;18.67;;;;;10.40;67.22;102321.09;1987068;28;3580472;-75
2024/02/21 02:02:56;;;;;;;;;20.83;17.83;;;;;10.44;67.47;102318.44;2020520;28;1831549;-75
2024/02/21 02:04:08;;;;;;;;;18.00;15.00;;;;;10.44;67.13;102305.31;1974697;28;2816944;-75
2024/02/21 02:05:21;;;;;;;;;17.33;16.67;;;;;10.45;67.22;102296.53;1989730;28;3570066;-75
2024/02/21 02:06:33;;;;;;;;;23.20;17.60;;;;;10.48;67.09;102285.13;2010655;28;2837173;-75
2024/02/21 02:07:46;;;;;;;;;16.40;14.40;;;;;10.48;67.26;102277.22;2006211;28;1827370;-75
2024/02/21 02:08:57;;;;;;;;;24.00;19.00;;;;;10.50;67.24;102275.44;1999887;28;2838808;-75
2024/02/21 02:10:09;;;;;;;;;19.67;18.00;;;;;10.52;66.48;102271.09;1987229;28;3564780;-75
2024/02/21 02:11:20;;;;;;;;;17.00;16.00;;;;;10.53;66.73;102270.22;1995257;28;2823182;-75
2024/02/21 02:12:32;;;;;;;;;17.20;16.00;;;;;10.50;66.95;102267.56;2001810;28;1829540;-75
2024/02/21 02:13:46;;;;;;;;;21.00;16.86;;;;;10.54;66.63;102274.56;2018108;28;1836711;-75
2024/02/21 02:15:04;;;;;;;;;21.00;18.00;;;;;10.51;66.84;102271.97;1990988;28;2832568;-75
2024/02/21 02:16:15;;;;;;;;;19.50;16.50;;;;;10.53;66.83;102270.22;1967611;28;2803375;-75
2024/02/21 02:17:26;;;;;;;;;17.00;17.00;;;;;10.52;66.87;102260.56;1980974;27;2824240;-75
2024/02/21 02:18:39;;;;;;;;;21.83;18.00;;;;;10.54;66.78;102261.41;2001622;28;2833563;-75
2024/02/21 02:19:50;;;;;;;;;18.00;17.00;;;;;10.52;66.66;102255.31;1991530;27;2823187;-75
2024/02/21 02:21:06;;;;;;;;;20.67;17.67;;;;;10.53;66.64;102249.19;1997216;28;2835736;-75
2024/02/21 02:22:25;;;;;;;;;21.50;16.67;;;;;10.53;66.95;102250.94;2027259;28;1837308;-75
2024/02/21 02:23:35;;;;;;;;;23.00;17.00;;;;;10.52;66.84;102250.03;1972217;28;2827349;-75
2024/02/21 02:24:47;;;;;;;;;19.33;18.33;;;;;10.52;66.38;102247.41;1985068;28;3571022;-75
2024/02/21 02:26:00;;;;;;;;;21.33;18.33;;;;;10.54;66.63;102244.78;2008800;28;2836819;-75
2024/02/21 02:27:13;;;;;;;;;18.80;17.40;;;;;10.51;66.61;102247.44;2009455;28;2829441;-75
2024/02/21 02:28:25;;;;;;;;;18.67;15.33;;;;;10.52;66.46;102251.84;1985497;28;3542954;-75
2024/02/21 02:29:36;;;;;;;;;19.67;15.67;;;;;10.51;66.63;102256.22;2006127;28;2809715;-75
2024/02/21 02:30:51;;;;;;;;;19.14;18.00;;;;;10.51;66.47;102243.06;2019806;28;1841991;-75
2024/02/21 02:32:03;;;;;;;;;21.33;18.33;;;;;10.49;66.44;102236.91;1997380;28;2829564;-75
2024/02/21 02:33:17;;;;;;;;;20.29;17.14;;;;;10.50;66.48;102230.75;2027605;28;1836790;-75
2024/02/21 02:34:28;;;;;;;;;18.00;17.00;;;;;10.48;66.53;102214.13;1989960;28;2832565;-75
2024/02/21 02:35:40;;;;;;;;;20.40;16.40;;;;;10.48;66.51;102214.13;1991604;28;1835758;-75
2024/02/21 02:36:52;;;;;;;;;20.00;18.33;;;;;10.47;66.49;102221.13;1975500;28;3568987;-75
2024/02/21 02:38:04;;;;;;;;;18.00;16.00;;;;;10.45;66.37;102222.91;2013388;28;3558593;-75
2024/02/21 02:39:17;;;;;;;;;16.67;15.67;;;;;10.47;66.42;102236.91;2027505;28;1837339;-75
2024/02/21 02:40:29;;;;;;;;;19.67;19.33;;;;;10.45;66.05;102243.94;1975640;27;3572115;-75
2024/02/21 02:41:40;;;;;;;;;15.00;15.00;;;;;10.45;66.52;102245.69;2005115;28;2794016;-75
2024/02/21 02:42:54;;;;;;;;;19.00;16.67;;;;;10.45;66.57;102236.06;1999448;28;2835738;-75
2024/02/21 02:44:06;;;;;;;;;19.33;17.33;;;;;10.46;66.44;102222.03;1966946;28;2825282;-75
2024/02/21 02:45:17;;;;;;;;;25.50;17.50;;;;;10.43;66.55;102205.41;1992194;28;2851359;-75
2024/02/21 02:46:28;;;;;;;;;21.00;16.00;;;;;10.44;66.37;102215.94;1966921;28;2819382;-75
2024/02/21 02:47:40;;;;;;;;;20.50;15.00;;;;;10.45;66.55;102220.28;1984178;28;2829401;-75
2024/02/21 02:48:50;;;;;;;;;16.00;15.00;;;;;10.44;66.66;102212.44;1964492;28;2816238;-75
2024/02/21 02:50:02;;;;;;;;;22.00;15.67;;;;;10.45;66.55;102214.16;1966176;28;3559616;-75
2024/02/21 02:51:13;;;;;;;;;20.00;19.00;;;;;10.45;66.48;102207.16;1999905;28;2842019;-75
2024/02/21 02:52:24;;;;;;;;;15.50;14.50;;;;;10.46;66.32;102200.13;1991119;28;2806580;-75
2024/02/21 02:53:35;;;;;;;;;17.50;17.00;;;;;10.46;66.09;102195.75;1992730;28;2829456;-75
2024/02/21 02:54:51;;;;;;;;;22.20;18.20;;;;;10.47;66.40;102191.34;2000226;28;1839867;-75
2024/02/21 02:56:05;;;;;;;;;23.33;17.50;;;;;10.48;66.80;102198.34;2027952;28;1832582;-75
2024/02/21 02:57:15;;;;;;;;;18.00;16.00;;;;;10.47;66.31;102204.50;1975428;28;2827378;-75
2024/02/21 02:58:26;;;;;;;;;18.75;16.25;;;;;10.46;66.18;102200.13;1992402;28;1836743;-75
2024/02/21 02:59:40;;;;;;;;;17.86;15.86;;;;;10.45;66.29;102201.00;1998691;28;1833580;-75
2024/02/21 03:00:52;;;;;;;;;22.00;18.33;;;;;10.46;66.47;102195.75;1997800;28;3571131;-75
2024/02/21 03:02:03;;;;;;;;;21.33;16.67;;;;;10.48;66.51;102198.34;2014681;28;3561729;-75
2024/02/21 03:03:15;;;;;;;;;17.25;14.00;;;;;10.46;66.52;102194.88;2017686;28;1850305;-75
2024/02/21 03:04:27;;;;;;;;;20.00;18.00;;;;;10.49;66.66;102196.59;2017811;28;3577312;-75
2024/02/21 03:05:38;;;;;;;;;23.50;18.00;;;;;10.49;66.68;102194.84;2007023;28;2830470;-75
2024/02/21 03:06:49;;;;;;;;;17.75;15.75;;;;;10.51;66.57;102194.88;2002108;28;1827334;-74
2024/02/21 03:08:01;;;;;;;;;20.40;17.60;;;;;10.49;66.52;102184.34;1992652;28;2827405;-75
2024/02/21 03:09:12;;;;;;;;;18.00;17.50;;;;;10.52;66.41;102183.47;1989721;28;2835655;-75
2024/02/21 03:10:25;;;;;;;;;18.33;15.50;;;;;10.49;66.28;102186.97;1999164;28;2812779;-75
2024/02/21 03:11:37;;;;;;;;;16.50;15.00;;;;;10.53;66.58;102193.97;1975745;28;2810684;-75
2024/02/21 03:12:53;;;;;;;;;22.33;19.33;;;;;10.52;66.40;102173.81;2033365;28;1837797;-75
2024/02/21 03:14:04;;;;;;;;;17.67;15.67;;;;;10.53;66.34;102172.06;1981287;28;2823198;-75
2024/02/21 03:15:16;;;;;;;;;19.00;18.00;;;;;10.55;66.39;102171.16;1989550;28;2836862;-75
2024/02/21 03:16:27;;;;;;;;;16.50;8.25;;;;;10.56;66.38;102169.41;2005514;28;1846144;-75
2024/02/21 03:17:39;;;;;;;;;20.33;17.00;;;;;10.55;66.43;102168.53;1989180;28;2827419;-75
2024/02/21 03:18:49;;;;;;;;;21.00;17.50;;;;;10.54;66.33;102155.41;1982105;28;2829433;-75
2024/02/21 03:20:04;;;;;;;;;21.00;19.40;;;;;10.57;66.30;102152.72;1985675;28;3565838;-75
2024/02/21 03:21:16;;;;;;;;;20.00;17.33;;;;;10.54;66.55;102145.75;1997177;28;3564811;-75
2024/02/21 03:22:28;;;;;;;;;21.60;16.20;;;;;10.55;66.59;102142.22;2025230;28;1837824;-75
2024/02/21 03:23:39;;;;;;;;;19.33;17.00;;;;;10.59;66.36;102143.09;1997264;28;3564863;-75
2024/02/21 03:24:51;;;;;;;;;23.33;19.00;;;;;10.57;66.24;102144.84;2003734;28;3574215;-75
2024/02/21 03:26:02;;;;;;;;;18.00;15.50;;;;;10.58;66.61;102142.22;2006798;28;2807638;-75
2024/02/21 03:27:14;;;;;;;;;20.33;19.33;;;;;10.58;66.70;102136.06;1989082;28;2820156;-75
2024/02/21 03:28:24;;;;;;;;;14.00;13.00;;;;;10.57;66.50;102135.19;1996055;28;2789854;-75
2024/02/21 03:29:36;;;;;;;;;20.67;17.33;;;;;10.62;66.58;102150.06;1993014;28;3577315;-75
2024/02/21 03:30:48;;;;;;;;;22.00;18.33;;;;;10.58;66.45;102144.84;2014224;28;3583572;-75
2024/02/21 03:31:59;;;;;;;;;16.00;15.00;;;;;10.57;66.64;102137.81;2028261;28;1825338;-75
2024/02/21 03:33:10;;;;;;;;;22.00;19.00;;;;;10.60;66.57;102133.41;1973376;28;2828388;-75
2024/02/21 03:34:23;;;;;;;;;24.17;18.67;;;;;10.60;66.53;102128.16;2000279;28;2854448;-75
2024/02/21 03:35:34;;;;;;;;;19.00;16.80;;;;;10.59;66.26;102122.06;1992711;28;1829956;-75
2024/02/21 03:36:47;;;;;;;;;21.60;16.80;;;;;10.59;66.36;102108.91;2007438;28;2839842;-75
2024/02/21 03:38:00;;;;;;;;;18.17;15.67;;;;;10.57;66.22;102098.38;2006871;28;2810676;-75
2024/02/21 03:39:11;;;;;;;;;19.67;18.33;;;;;10.58;66.35;102089.63;1991623;28;3559590;-75
2024/02/21 03:40:23;;;;;;;;;20.33;17.00;;;;;10.57;66.21;102093.13;2015352;28;2831587;-75
2024/02/21 03:41:35;;;;;;;;;20.67;18.67;;;;;10.58;66.22;102094.00;1989549;28;2831559;-75
2024/02/21 03:42:45;;;;;;;;;20.50;18.00;;;;;10.57;66.20;102098.38;1989612;28;2831030;-75
2024/02/21 03:43:57;;;;;;;;;18.67;17.00;;;;;10.60;66.25;102107.13;1991852;28;3575221;-75
2024/02/21 03:45:09;;;;;;;;;21.33;16.67;;;;;10.58;66.42;102107.16;2006804;28;3563802;-75
2024/02/21 03:46:21;;;;;;;;;19.00;17.40;;;;;10.55;66.19;102110.69;2016895;28;1844583;-75
2024/02/21 03:47:32;;;;;;;;;20.50;16.00;;;;;10.57;66.24;102102.78;1975047;28;2827362;-75
2024/02/21 03:48:46;;;;;;;;;19.33;16.17;;;;;10.58;66.64;102112.41;2005469;27;2821116;-75
2024/02/21 03:49:56;;;;;;;;;21.00;15.00;;;;;10.56;66.28;102106.31;1967251;28;2817986;-75
2024/02/21 03:51:08;;;;;;;;;23.00;18.33;;;;;10.54;66.19;102105.47;1983136;28;3580424;-75
2024/02/21 03:52:19;;;;;;;;;16.00;14.50;;;;;10.54;66.47;102103.69;2008078;28;2810671;-75
2024/02/21 03:53:31;;;;;;;;;20.80;15.00;;;;;10.53;66.13;102106.34;1992048;27;1827412;-75
2024/02/21 03:54:41;;;;;;;;;22.50;19.00;;;;;10.53;66.16;102111.59;1988957;28;2837710;-75
2024/02/21 03:55:53;;;;;;;;;19.75;16.25;;;;;10.53;66.25;102111.59;2002616;27;1834236;-75
2024/02/21 03:57:05;;;;;;;;;19.00;17.00;;;;;10.53;66.21;102112.47;1975023;28;2826352;-75
2024/02/21 03:58:16;;;;;;;;;20.00;16.00;;;;;10.50;66.44;102114.22;1975827;28;2819061;-75
2024/02/21 03:59:27;;;;;;;;;14.00;13.00;;;;;10.53;66.28;102122.09;1991151;28;2804394;-75
2024/02/21 04:00:39;;;;;;;;;17.67;16.67;;;;;10.51;66.31;102123.88;2006539;28;2823209;-75
2024/02/21 04:01:53;;;;;;;;;19.50;15.50;;;;;10.50;66.21;102117.72;2019729;28;1836793;-75
2024/02/21 04:03:04;;;;;;;;;19.33;18.33;;;;;10.50;66.12;102117.72;1974499;27;3575250;-75
2024/02/21 04:04:16;;;;;;;;;20.67;17.33;;;;;10.52;66.35;102115.97;2003076;28;3558623;-75
2024/02/21 04:05:27;;;;;;;;;15.50;15.00;;;;;10.50;66.14;102115.09;2006168;28;2810675;-75
2024/02/21 04:06:47;;;;;;;;;19.00;15.00;;;;;10.48;66.35;102106.34;2006812;28;2808601;-75
2024/02/21 04:07:58;;;;;;;;;17.33;16.33;;;;;10.49;66.39;102105.47;1969031;28;3566917;-75
2024/02/21 04:09:10;;;;;;;;;19.33;16.33;;;;;10.48;66.26;102108.97;1998239;28;2819109;-75
2024/02/21 04:10:21;;;;;;;;;19.33;18.67;;;;;10.48;66.37;102103.72;1990378;28;3573146;-75
2024/02/21 04:11:32;;;;;;;;;18.00;17.50;;;;;10.49;65.92;102105.47;2004613;28;2810683;-75
2024/02/21 04:12:43;;;;;;;;;18.00;16.00;;;;;10.48;66.45;102108.97;1988043;28;2831544;-75
2024/02/21 04:13:54;;;;;;;;;17.00;15.00;;;;;10.46;66.18;102110.75;1991644;28;2804474;-75
2024/02/21 04:15:08;;;;;;;;;19.17;15.50;;;;;10.45;66.20;102102.00;2034128;28;2830435;-75
2024/02/21 04:16:19;;;;;;;;;20.75;16.50;;;;;10.49;66.37;102117.75;1987860;28;1854500;-75
2024/02/21 04:17:30;;;;;;;;;15.67;12.33;;;;;10.49;66.46;102112.50;2013986;27;3540847;-75
2024/02/21 04:18:41;;;;;;;;;18.50;16.75;;;;;10.47;66.56;102109.84;2014852;28;1839957;-75
2024/02/21 04:20:05;;;;;;;;;16.00;15.00;;;;;10.48;66.57;102108.97;1959696;28;2824233;-75
2024/02/21 04:21:17;;;;;;;;;25.00;18.50;;;;;10.50;66.60;102112.47;1968334;28;2839864;-75
2024/02/21 04:22:28;;;;;;;;;17.50;17.00;;;;;10.50;66.21;102111.59;1966016;28;2829425;-75
2024/02/21 04:23:39;;;;;;;;;20.25;16.75;;;;;10.50;66.17;102104.56;1990676;28;1837758;-75
2024/02/21 04:24:51;;;;;;;;;16.80;15.80;;;;;10.50;66.21;102101.94;1976593;28;2825641;-75
2024/02/21 04:26:02;;;;;;;;;15.50;14.00;;;;;10.49;66.60;102097.59;1975609;28;2800224;-75
2024/02/21 04:27:13;;;;;;;;;22.00;20.00;;;;;10.51;66.16;102095.84;1972034;28;2835775;-75
2024/02/21 04:28:24;;;;;;;;;19.00;19.00;;;;;10.54;66.17;102092.31;1975608;28;2829435;-75
2024/02/21 04:29:36;;;;;;;;;16.20;14.20;;;;;10.54;66.56;102089.69;1987182;28;1832128;-75
2024/02/21 04:30:47;;;;;;;;;17.00;15.00;;;;;10.53;66.63;102088.81;1980576;28;2819055;-75
2024/02/21 04:31:58;;;;;;;;;22.00;17.33;;;;;10.50;66.61;102073.03;1972972;28;3564212;-75
2024/02/21 04:33:09;;;;;;;;;18.50;16.25;;;;;10.52;66.45;102079.16;2008378;28;1823192;-75
2024/02/21 04:34:23;;;;;;;;;18.67;16.67;;;;;10.55;66.31;102075.63;1987948;28;1833630;-75
2024/02/21 04:35:36;;;;;;;;;17.00;15.00;;;;;10.54;66.28;102076.53;1958866;28;2797209;-75
2024/02/21 04:36:49;;;;;;;;;14.50;14.00;;;;;10.53;66.62;102075.66;1989085;28;1817999;-75
2024/02/21 04:38:00;;;;;;;;;18.00;16.33;;;;;10.53;66.72;102067.78;1958428;28;3561778;-75
2024/02/21 04:39:11;;;;;;;;;14.00;14.00;;;;;10.55;66.32;102054.59;1997289;28;2786725;-75
2024/02/21 04:40:24;;;;;;;;;16.83;15.67;;;;;10.55;66.58;102050.22;1988907;28;2822513;-75
2024/02/21 04:41:36;;;;;;;;;20.80;15.80;;;;;10.54;66.33;102052.88;1970524;28;3566887;-75
2024/02/21 04:42:49;;;;;;;;;21.00;17.33;;;;;10.53;66.70;102049.38;2008238;28;2843018;-75
2024/02/21 04:44:00;;;;;;;;;17.50;15.50;;;;;10.51;66.51;102066.94;1974795;28;2816950;-75
2024/02/21 04:45:11;;;;;;;;;18.75;14.25;;;;;10.54;66.25;102077.38;2000180;28;1833636;-75
2024/02/21 04:46:25;;;;;;;;;17.29;14.86;;;;;10.51;66.71;102069.56;2002012;28;1827339;-75
2024/02/21 04:47:36;;;;;;;;;17.00;15.50;;;;;10.50;66.42;102070.41;1981667;28;2815907;-75
2024/02/21 04:48:47;;;;;;;;;16.50;15.00;;;;;10.52;66.18;102065.19;1972085;28;2803459;-75
2024/02/21 04:49:58;;;;;;;;;17.50;14.00;;;;;10.50;66.07;102062.50;1974995;28;2805502;-75
2024/02/21 04:51:09;;;;;;;;;18.00;15.00;;;;;10.51;66.45;102055.53;1999089;28;2824221;-75
2024/02/21 04:52:20;;;;;;;;;17.50;16.00;;;;;10.49;66.33;102060.78;1971832;28;2825230;-75
2024/02/21 04:53:31;;;;;;;;;16.50;15.00;;;;;10.50;66.51;102073.03;1973187;28;2820054;-75
2024/02/21 04:54:42;;;;;;;;;19.00;17.50;;;;;10.49;66.02;102068.66;1967439;28;2829419;-75
2024/02/21 04:55:53;;;;;;;;;15.00;12.00;;;;;10.49;66.55;102067.78;1976236;28;2791935;-75
2024/02/21 04:57:06;;;;;;;;;15.00;14.83;;;;;10.47;66.51;102057.28;2015985;28;2798629;-75
2024/02/21 04:58:17;;;;;;;;;18.00;15.50;;;;;10.49;66.51;102063.41;1976046;28;2798215;-75
2024/02/21 04:59:29;;;;;;;;;18.33;11.33;;;;;10.49;66.57;102068.66;2000727;28;2828478;-75
2024/02/21 05:00:43;;;;;;;;;19.00;17.00;;;;;10.49;66.49;102071.31;2012312;28;1833623;-75
2024/02/21 05:01:53;;;;;;;;;14.50;13.50;;;;;10.48;66.66;102069.53;1960875;28;2787768;-75
2024/02/21 05:03:04;;;;;;;;;17.00;14.50;;;;;10.45;66.27;102054.69;1998769;28;2814918;-75
2024/02/21 05:04:15;;;;;;;;;17.50;13.00;;;;;10.47;66.12;102067.78;1977721;28;2806545;-75
2024/02/21 05:05:26;;;;;;;;;21.00;15.00;;;;;10.46;66.17;102053.81;1976140;28;2797159;-75
2024/02/21 05:06:41;;;;;;;;;12.00;11.00;;;;;10.49;66.42;102060.78;2002035;28;2790068;-75
2024/02/21 05:07:54;;;;;;;;;18.40;17.00;;;;;10.46;66.59;102045.03;2001465;28;2831511;-75
2024/02/21 05:09:08;;;;;;;;;14.50;13.50;;;;;10.45;66.44;102040.66;1976466;28;2799626;-75
2024/02/21 05:10:20;;;;;;;;;15.50;14.00;;;;;10.46;66.26;102038.03;1974813;28;2796086;-75
2024/02/21 05:11:31;;;;;;;;;17.00;15.00;;;;;10.45;66.24;102038.03;1959082;28;2815360;-75
2024/02/21 05:12:41;;;;;;;;;9.33;7.67;;;;;10.44;66.34;102041.56;1992573;28;3472099;-75
2024/02/21 05:13:52;;;;;;;;;17.25;14.50;;;;;10.41;66.26;102025.81;2008348;28;1825309;-75
2024/02/21 05:15:04;;;;;;;;;15.75;14.00;;;;;10.43;66.58;102026.66;1974727;28;1848229;-75
2024/02/21 05:16:15;;;;;;;;;13.00;13.00;;;;;10.41;66.11;102017.94;1983238;28;2789203;-75
2024/02/21 05:17:26;;;;;;;;;20.50;15.00;;;;;10.41;66.00;102026.69;1998692;28;2810701;-75
2024/02/21 05:18:37;;;;;;;;;18.00;14.50;;;;;10.41;66.35;102026.69;1975496;28;2804422;-75
2024/02/21 05:19:48;;;;;;;;;14.50;11.50;;;;;10.39;66.63;102031.09;1997479;28;2787776;-75